Terminal Aerodrome Forecast
Issued by NWS

Home | Current Version | Previous Version | Text Only | Print | Product List | Glossary On
Versions: 1 2 3 4 5 6 7 8 9 10 11 12 13 14
614
FTUS43 KFGF 092326
TAFTVF
TAF
KTVF 092326Z 1000/1024 32007KT P6SM SCT250
     FM101200 VRB03KT P6SM BKN080=

USA.gov is the U.S. government's official web portal to all federal, state and local government web resources and services.